VLG5MX LEZL-GMMI
Flight info
| Callsign | VLG5MX |
|---|---|
| Flight time | N/A |
| Altitude | 35000 |
| Route | CLANA DCT KORNO UN857 IBALU UR724 ESS |
| Aircraft | A21N/M-SDE2E3FGHIRWXY/LB1 |
Departure
| Time | 2026-05-04 21:17 |
|---|---|
| Airport | Seville Airport (LEZL) |
Arrival
| Time | N/A |
|---|---|
| Airport | Essaouira-Mogador Airport (GMMI) |
| Time | Latitude | Longitude | Altitude | Speed | Heading |
|---|---|---|---|---|---|
| 2026-05-04 20:51 | 37.42302 | -5.89842 | 94 ft | 0 kts | 315° |
| 2026-05-04 21:08 | 37.42300 | -5.89839 | 95 ft | 1 kts | 314° |
| 2026-05-04 21:09 | 37.42294 | -5.89832 | 93 ft | 1 kts | 312° |
| 2026-05-04 21:09 | 37.42289 | -5.89824 | 96 ft | 1 kts | 312° |
| 2026-05-04 21:09 | 37.42279 | -5.89812 | 93 ft | 2 kts | 316° |
| 2026-05-04 21:09 | 37.42269 | -5.89798 | 93 ft | 2 kts | 318° |
| 2026-05-04 21:10 | 37.42256 | -5.89787 | 92 ft | 2 kts | 3° |
| 2026-05-04 21:10 | 37.42242 | -5.89790 | 93 ft | 2 kts | 33° |
| 2026-05-04 21:10 | 37.42230 | -5.89800 | 93 ft | 1 kts | 40° |
| 2026-05-04 21:10 | 37.42229 | -5.89801 | 94 ft | 0 kts | 40° |
| 2026-05-04 21:11 | 37.42230 | -5.89800 | 94 ft | 1 kts | 40° |
| 2026-05-04 21:11 | 37.42268 | -5.89728 | 94 ft | 7 kts | 91° |
| 2026-05-04 21:12 | 37.42204 | -5.89649 | 94 ft | 19 kts | 129° |
| 2026-05-04 21:12 | 37.42086 | -5.89490 | 98 ft | 26 kts | 136° |
| 2026-05-04 21:12 | 37.41990 | -5.89337 | 100 ft | 12 kts | 95° |
| 2026-05-04 21:12 | 37.41983 | -5.89220 | 100 ft | 15 kts | 94° |
| 2026-05-04 21:13 | 37.41984 | -5.89082 | 101 ft | 17 kts | 89° |
| 2026-05-04 21:13 | 37.41985 | -5.88919 | 102 ft | 20 kts | 90° |
| 2026-05-04 21:13 | 37.41985 | -5.88738 | 103 ft | 22 kts | 89° |
| 2026-05-04 21:13 | 37.41985 | -5.88540 | 104 ft | 24 kts | 90° |
| 2026-05-04 21:14 | 37.41986 | -5.88322 | 105 ft | 25 kts | 89° |
| 2026-05-04 21:14 | 37.41987 | -5.88091 | 106 ft | 27 kts | 89° |
| 2026-05-04 21:14 | 37.41987 | -5.87848 | 108 ft | 29 kts | 91° |
| 2026-05-04 21:14 | 37.41989 | -5.87590 | 109 ft | 30 kts | 89° |
| 2026-05-04 21:15 | 37.41975 | -5.87343 | 114 ft | 17 kts | 115° |
| 2026-05-04 21:15 | 37.41970 | -5.87334 | 113 ft | 0 kts | 123° |
| 2026-05-04 21:15 | 37.41948 | -5.87311 | 115 ft | 9 kts | 152° |
| 2026-05-04 21:16 | 37.41909 | -5.87378 | 114 ft | 17 kts | 283° |
| 2026-05-04 21:16 | 37.41852 | -5.87472 | 115 ft | 15 kts | 197° |
| 2026-05-04 21:16 | 37.41801 | -5.87559 | 116 ft | 0 kts | 270° |
| 2026-05-04 21:17 | 37.41798 | -5.87813 | 110 ft | 75 kts | 270° |
| 2026-05-04 21:17 | 37.41793 | -5.88860 | 104 ft | 157 kts | 270° |
| 2026-05-04 21:17 | 37.41802 | -5.90424 | 355 ft | 198 kts | 268° |
| 2026-05-04 21:17 | 37.41801 | -5.92252 | 1006 ft | 214 kts | 269° |